Time;durP1;ratioP1;P1;durP2;ratioP2;P2;SDS_P1;SDS_P2;PMS_P1;PMS_P2;Temp;Humidity;BMP_temperature;BMP_pressure;BME280_temperature;BME280_humidity;BME280_pressure;Samples;Min_cycle;Max_cycle;Signal;HPM_P1;HPM_P2
2022/05/13 16:02:03;;;;;;;;;;;;;;;;;;4956741;28;20009;-76
2022/05/13 16:04:28;;;;;;;;;;;;;;;;;;4958308;28;20387;-77
2022/05/13 16:06:54;;;;;;;;;;;;;;;;;;4975804;28;19936;-77
2022/05/13 16:09:19;;;;;;;;;;;;;;;;;;4975684;28;19969;-77
2022/05/13 16:11:46;;;;;;;;;;;;;;;;;;4975495;28;19914;-77
2022/05/13 16:14:15;;;;;;;;;;;;;;;;;;4975560;28;19968;-79
2022/05/13 16:16:42;;;;;;;;;;;;;;;;;;4975160;28;20004;-78
2022/05/13 16:19:12;;;;;;;;;;;;;;;;;;4975497;28;19914;-77
2022/05/13 16:21:39;;;;;;;;;;;;;;;;;;4975359;28;19918;-77
2022/05/13 16:24:06;;;;;;;;;;;;;;;;;;4975352;28;20391;-78
2022/05/13 16:26:34;;;;;;;;;;;;;;;;;;4975538;28;19914;-78
2022/05/13 16:28:59;;;;;;;;;;;;;;;;;;4975021;28;19961;-79
2022/05/13 16:31:28;;;;;;;;;;;;;;;;;;4975122;28;19918;-78
2022/05/13 16:33:53;;;;;;;;;;;;;;;;;;4975360;28;19941;-79
2022/05/13 16:36:19;;;;;;;;;;;;;;;;;;4975205;28;19914;-79
2022/05/13 16:38:46;;;;;;;;;;;;;;;;;;4975062;28;19914;-78
2022/05/13 16:41:12;;;;;;;;;;;;;;;;;;4975435;28;20357;-82
2022/05/13 16:43:37;;;;;;;;;;;;;;;;;;4975099;28;19921;-78
2022/05/13 16:46:03;;;;;;;;;;;;;;;;;;4974184;28;20364;-79
2022/05/13 16:48:28;;;;;;;;;;;;;;;;;;4975090;28;19922;-78
2022/05/13 16:50:53;;;;;;;;;;;;;;;;;;4975186;28;19968;-79
2022/05/13 16:53:19;;;;;;;;;;;;;;;;;;4975051;28;19914;-79
2022/05/13 16:55:46;;;;;;;;;;;;;;;;;;4975020;28;19992;-79
2022/05/13 16:58:12;;;;;;;;;;;;;;;;;;4974637;28;19964;-79
2022/05/13 17:00:37;;;;;;;;;;;;;;;;;;4974774;28;19953;-79
2022/05/13 17:03:03;;;;;;;;;;;;;;;;;;4975002;28;19949;-79
2022/05/13 17:05:33;;;;;;;;;;;;;;;;;;4974790;28;19914;-79
2022/05/13 17:07:58;;;;;;;;;;;;;;;;;;4974868;28;20308;-79
2022/05/13 17:21:22;;;;;;;;;;;;;;;;;;4974713;28;19925;-79
2022/05/13 17:23:47;;;;;;;;;;;;;;;;;;4974823;28;19914;-78
2022/05/13 17:26:13;;;;;;;;;;;;;;;;;;4975023;28;19914;-79
2022/05/13 17:28:38;;;;;;;;;;;;;;;;;;4974732;28;20001;-78
2022/05/13 17:31:04;;;;;;;;;;;;;;;;;;4974198;28;19941;-79
2022/05/13 17:33:29;;;;;;;;;;;;;;;;;;4974657;28;19926;-81
2022/05/13 17:35:55;;;;;;;;;;;;;;;;;;4974658;28;19914;-79
2022/05/13 17:38:21;;;;;;;;;;;;;;;;;;4974625;28;19914;-79
2022/05/13 17:40:47;;;;;;;;;;;;;;;;;;4974693;28;20292;-80
2022/05/13 17:43:14;;;;;;;;;;;;;;;;;;4974757;28;20379;-80
2022/05/13 17:45:41;;;;;;;;;;;;;;;;;;4974683;28;20012;-80
2022/05/13 17:48:07;;;;;;;;;;;;;;;;;;4974575;28;19909;-79
2022/05/13 17:50:33;;;;;;;;;;;;;;;;;;4974415;28;19914;-79
2022/05/13 17:52:59;;;;;;;;;;;;;;;;;;4974877;28;19953;-79
2022/05/13 17:55:24;;;;;;;;;;;;;;;;;;4974701;28;19964;-79
2022/05/13 17:57:50;;;;;;;;;;;;;;;;;;4977111;28;19914;-79
2022/05/13 18:00:16;;;;;;;;;;;;;;;;;;4978011;28;19914;-78
2022/05/13 18:02:42;;;;;;;;;;;;;;;;;;4977737;28;19924;-80
2022/05/13 18:05:08;;;;;;;;;;;;;;;;;;4977891;28;19914;-79
2022/05/13 18:07:34;;;;;;;;;;;;;;;;;;4977660;28;19914;-78
2022/05/13 18:09:59;;;;;;;;;;;;;;;;;;4977743;28;20383;-81
2022/05/13 18:12:25;;;;;;;;;;;;;;;;;;4978008;28;19945;-78
2022/05/13 18:14:50;;;;;;;;;;;;;;;;;;4977799;28;20289;-78
2022/05/13 18:17:16;;;;;;;;;;;;;;;;;;4977396;28;19914;-78
2022/05/13 18:19:42;;;;;;;;;;;;;;;;;;4977633;28;20288;-78
2022/05/13 18:22:11;;;;;;;;;;;;;;;;;;4977810;28;19918;-79
2022/05/13 18:24:37;;;;;;;;;;;;;;;;;;4977480;28;20426;-79
2022/05/13 18:27:03;;;;;;;;;;;;;;;;;;4977414;28;19929;-78
2022/05/13 18:29:28;;;;;;;;;;;;;;;;;;4977731;28;19914;-78
2022/05/13 18:31:54;;;;;;;;;;;;;;;;;;4977608;28;20365;-79
2022/05/13 18:34:19;;;;;;;;;;;;;;;;;;4977246;28;19914;-78
2022/05/13 18:36:44;;;;;;;;;;;;;;;;;;4977490;28;20060;-79
2022/05/13 18:39:10;;;;;;;;;;;;;;;;;;4977208;28;19918;-78
2022/05/13 18:47:03;;;;;;;;;;;;;;;;;;4977236;28;20419;-77
2022/05/13 18:49:30;;;;;;;;;;;;;;;;;;4977338;28;20004;-78
2022/05/13 18:51:55;;;;;;;;;;;;;;;;;;4977007;28;20292;-77
2022/05/13 18:54:21;;;;;;;;;;;;;;;;;;4977078;28;19914;-77
2022/05/13 18:56:46;;;;;;;;;;;;;;;;;;4976921;28;19918;-78
2022/05/13 18:59:12;;;;;;;;;;;;;;;;;;4977163;28;19929;-76
2022/05/13 19:01:38;;;;;;;;;;;;;;;;;;4976497;28;19953;-81
2022/05/13 19:04:04;;;;;;;;;;;;;;;;;;4976921;28;19942;-78
2022/05/13 19:06:30;;;;;;;;;;;;;;;;;;4976652;28;19938;-78
2022/05/13 19:08:57;;;;;;;9.35;6.70;;;;;;;;;;4975944;28;20409;-78
2022/05/13 19:11:23;;;;;;;10.35;6.43;;;;;;;;;;4976137;28;20030;-77
2022/05/13 19:13:51;;;;;;;6.90;5.82;;;;;;;;;;4976376;28;20090;-77
2022/05/13 19:16:17;;;;;;;7.65;5.93;;;;;;;;;;4976039;28;20050;-76
2022/05/13 19:18:43;;;;;;;7.32;5.70;;;;;;;;;;4958567;28;20069;-77
2022/05/13 19:21:10;;;;;;;9.90;5.65;;;;;;;;;;4975922;28;20031;-77
2022/05/13 19:23:37;;;;;;;8.90;5.65;;;;;;;;;;4976154;28;20033;-77
2022/05/13 19:26:04;;;;;;;;;;;;;;;;;;4958995;28;19914;-77
2022/05/13 19:28:30;;;;;;;;;;;;;;;;;;4958616;28;20395;-77
2022/05/13 19:31:00;;;;;;;;;;;;;;;;;;4962278;28;19973;-76
2022/05/13 19:33:28;;;;;;;;;;;;;;;;;;4957095;28;19958;-76
2022/05/13 19:35:54;;;;;;;;;;;;;;;;;;4957057;29;19922;-76
2022/05/13 19:38:19;;;;;;;;;;;;;;;;;;4956601;29;19915;-76
2022/05/13 19:40:45;;;;;;;;;;;;;;;;;;4956775;29;19957;-76
2022/05/13 19:43:12;;;;;;;;;;;;;;;;;;4956719;29;19910;-77
2022/05/13 19:45:37;;;;;;;;;;;;;;;;;;4956856;29;19919;-76
2022/05/13 19:48:03;;;;;;;;;;;;;;;;;;4956631;29;19918;-76
2022/05/13 19:50:28;;;;;;;;;;;;;;;;;;4956590;28;20042;-76
2022/05/13 19:52:54;;;;;;;;;;;;;;;;;;4956840;29;20005;-76
2022/05/13 19:55:20;;;;;;;;;;;;;;;;;;4956557;28;19910;-76
2022/05/13 19:57:46;;;;;;;;;;;;;;;;;;4956343;29;20357;-76
2022/05/13 20:00:13;;;;;;;;;;;;;;;;;;4956436;29;19920;-76
2022/05/13 20:02:38;;;;;;;;;;;;;;;;;;4956314;29;19922;-76
2022/05/13 20:10:43;;;;;;;;;;;;;;;;;;4956602;29;19923;-76
2022/05/13 20:13:10;;;;;;;;;;;;;;;;;;4956426;29;20418;-75
2022/05/13 20:15:40;;;;;;;;;;;;;;;;;;4939106;29;19965;-77
2022/05/13 20:18:06;;;;;;;;;;;;;;;;;;4956237;29;20028;-76
2022/05/13 20:23:17;;;;;;;;;;;;;;;;;;4956264;28;20029;-79
2022/05/13 20:25:43;;;;;;;;;;;;;;;;;;4974556;28;20016;-76
2022/05/13 20:28:09;;;;;;;;;;;;;;;;;;4978201;28;20015;-75
2022/05/13 20:30:35;;;;;;;;;;;;;;;;;;4975340;28;19914;-75
2022/05/13 20:33:00;;;;;;;;;;;;;;;;;;4975171;28;20360;-75
2022/05/13 20:35:25;;;;;;;;;;;;;;;;;;4975162;28;19914;-75
2022/05/13 20:37:52;;;;;;;;;;;;;;;;;;4975197;28;19914;-75
2022/05/13 20:40:17;;;;;;;;;;;;;;;;;;4974900;28;19918;-74
2022/05/13 20:42:42;;;;;;;;;;;;;;;;;;4957636;28;19921;-73
2022/05/13 20:45:08;;;;;;;;;;;;;;;;;;4974421;28;20013;-76
2022/05/13 20:47:35;;;;;;;;;;;;;;;;;;4974953;28;19914;-76
2022/05/13 20:50:00;;;;;;;;;;;;;;;;;;4974808;28;19921;-76
2022/05/13 20:52:25;;;;;;;;;;;;;;;;;;4974968;28;19918;-77
2022/05/13 20:54:51;;;;;;;;;;;;;;;;;;4974942;28;19918;-78
2022/05/13 20:57:17;;;;;;;;;;;;;;;;;;4974775;28;19918;-78
2022/05/13 20:59:43;;;;;;;;;;;;;;;;;;4957401;28;20304;-78
2022/05/13 21:02:08;;;;;;;;;;;;;;;;;;4974779;28;20002;-76
2022/05/13 21:04:47;;;;;;;;;;;;;;;;;;4974919;28;20424;-75
2022/05/13 21:07:13;;;;;;;;;;;;;;;;;;4974754;28;19921;-75
2022/05/13 21:09:38;;;;;;;;;;;;;;;;;;4974860;28;20273;-75
2022/05/13 21:12:04;;;;;;;;;;;;;;;;;;4974871;28;19961;-76
2022/05/13 21:14:29;;;;;;;;;;;;;;;;;;4974799;28;19914;-77
2022/05/13 21:16:54;;;;;;;;;;;;;;;;;;4974474;28;19965;-75
2022/05/13 21:19:20;;;;;;;;;;;;;;;;;;4974754;28;19914;-75
2022/05/13 21:21:45;;;;;;;;;;;;;;;;;;4974828;28;19910;-77
2022/05/13 21:24:10;;;;;;;;;;;;;;;;;;4974737;28;19914;-76
2022/05/13 21:26:36;;;;;;;;;;;;;;;;;;4974750;28;19920;-75
2022/05/13 21:29:02;;;;;;;;;;;;;;;;;;4974655;28;20000;-76
2022/05/13 21:36:55;;;;;;;;;;;;;;;;;;4978391;28;19920;-76
2022/05/13 21:39:21;;;;;;;;;;;;;;;;;;4978265;28;19914;-75
2022/05/13 21:41:46;;;;;;;;;;;;;;;;;;4978314;28;19936;-75
2022/05/13 21:44:11;;;;;;;;;;;;;;;;;;4978023;28;19968;-75
2022/05/13 21:46:38;;;;;;;;;;;;;;;;;;4978349;28;19918;-75
2022/05/13 21:49:04;;;;;;;;;;;;;;;;;;4978279;28;19977;-76
2022/05/13 21:54:14;;;;;;;;;;;;;;;;;;4968204;28;19925;-80
2022/05/13 21:56:39;;;;;;;;;;;;;;;;;;4965358;28;19919;-75
2022/05/13 21:59:04;;;;;;;;;;;;;;;;;;4958722;29;19922;-77
2022/05/13 22:01:30;;;;;;;;;;;;;;;;;;4968655;28;19965;-79
2022/05/13 22:03:57;;;;;;;;;;;;;;;;;;4978217;28;19914;-75
